sensor_id;sensor_type;location;lat;lon;timestamp;P1;durP1;ratioP1;P2;durP2;ratioP2
34433;SDS011;34290;48.562;13.384;2022-11-25T00:01:06;12.13;;;6.67;;
34433;SDS011;34290;48.562;13.384;2022-11-25T00:03:34;15.77;;;7.47;;
34433;SDS011;34290;48.562;13.384;2022-11-25T00:06:08;13.93;;;6.23;;
34433;SDS011;34290;48.562;13.384;2022-11-25T00:08:37;230.60;;;11.77;;
34433;SDS011;34290;48.562;13.384;2022-11-25T00:11:06;70.87;;;7.80;;
34433;SDS011;34290;48.562;13.384;2022-11-25T00:13:33;251.60;;;13.67;;
34433;SDS011;34290;48.562;13.384;2022-11-25T00:16:01;96.83;;;7.90;;
34433;SDS011;34290;48.562;13.384;2022-11-25T00:18:28;20.20;;;5.27;;
34433;SDS011;34290;48.562;13.384;2022-11-25T00:20:55;234.87;;;14.33;;
34433;SDS011;34290;48.562;13.384;2022-11-25T00:23:22;316.77;;;14.60;;
34433;SDS011;34290;48.562;13.384;2022-11-25T00:25:51;14.60;;;5.33;;
34433;SDS011;34290;48.562;13.384;2022-11-25T00:28:19;73.70;;;7.37;;
34433;SDS011;34290;48.562;13.384;2022-11-25T00:30:46;10.03;;;5.50;;
34433;SDS011;34290;48.562;13.384;2022-11-25T00:33:14;18.73;;;6.93;;
34433;SDS011;34290;48.562;13.384;2022-11-25T00:35:42;14.27;;;6.77;;
34433;SDS011;34290;48.562;13.384;2022-11-25T00:38:09;17.70;;;7.53;;
34433;SDS011;34290;48.562;13.384;2022-11-25T00:40:40;16.43;;;7.70;;
34433;SDS011;34290;48.562;13.384;2022-11-25T00:43:07;18.67;;;6.93;;
34433;SDS011;34290;48.562;13.384;2022-11-25T00:45:52;17.67;;;7.10;;
34433;SDS011;34290;48.562;13.384;2022-11-25T00:48:19;164.83;;;11.10;;
34433;SDS011;34290;48.562;13.384;2022-11-25T00:50:46;150.80;;;10.80;;
34433;SDS011;34290;48.562;13.384;2022-11-25T00:53:13;40.20;;;5.23;;
34433;SDS011;34290;48.562;13.384;2022-11-25T00:55:40;67.03;;;6.93;;
34433;SDS011;34290;48.562;13.384;2022-11-25T00:58:27;47.70;;;6.63;;
34433;SDS011;34290;48.562;13.384;2022-11-25T01:00:55;33.63;;;5.93;;
34433;SDS011;34290;48.562;13.384;2022-11-25T01:03:27;11.10;;;5.57;;
34433;SDS011;34290;48.562;13.384;2022-11-25T01:05:54;11.87;;;5.90;;
34433;SDS011;34290;48.562;13.384;2022-11-25T01:08:20;17.00;;;5.67;;
34433;SDS011;34290;48.562;13.384;2022-11-25T01:10:47;14.07;;;5.87;;
34433;SDS011;34290;48.562;13.384;2022-11-25T01:13:14;28.03;;;6.30;;
34433;SDS011;34290;48.562;13.384;2022-11-25T01:15:41;48.73;;;6.00;;
34433;SDS011;34290;48.562;13.384;2022-11-25T01:18:11;42.57;;;5.20;;
34433;SDS011;34290;48.562;13.384;2022-11-25T01:20:38;90.23;;;7.90;;
34433;SDS011;34290;48.562;13.384;2022-11-25T01:23:06;84.90;;;7.43;;
34433;SDS011;34290;48.562;13.384;2022-11-25T01:25:35;14.73;;;4.80;;
34433;SDS011;34290;48.562;13.384;2022-11-25T01:28:03;43.23;;;6.23;;
34433;SDS011;34290;48.562;13.384;2022-11-25T01:30:30;68.07;;;7.50;;
34433;SDS011;34290;48.562;13.384;2022-11-25T01:32:57;59.13;;;8.03;;
34433;SDS011;34290;48.562;13.384;2022-11-25T01:35:25;80.73;;;7.83;;
34433;SDS011;34290;48.562;13.384;2022-11-25T01:37:52;109.27;;;8.43;;
34433;SDS011;34290;48.562;13.384;2022-11-25T01:40:19;115.13;;;9.07;;
34433;SDS011;34290;48.562;13.384;2022-11-25T01:42:47;57.20;;;7.47;;
34433;SDS011;34290;48.562;13.384;2022-11-25T01:48:04;122.33;;;8.87;;
34433;SDS011;34290;48.562;13.384;2022-11-25T01:50:39;43.33;;;5.37;;
34433;SDS011;34290;48.562;13.384;2022-11-25T01:53:07;49.83;;;5.47;;
34433;SDS011;34290;48.562;13.384;2022-11-25T01:55:37;36.97;;;5.97;;
34433;SDS011;34290;48.562;13.384;2022-11-25T01:58:09;22.93;;;5.33;;
34433;SDS011;34290;48.562;13.384;2022-11-25T02:00:39;30.23;;;6.10;;
34433;SDS011;34290;48.562;13.384;2022-11-25T02:03:06;35.80;;;5.87;;
34433;SDS011;34290;48.562;13.384;2022-11-25T02:05:35;27.90;;;5.87;;
34433;SDS011;34290;48.562;13.384;2022-11-25T02:08:07;19.73;;;5.40;;
34433;SDS011;34290;48.562;13.384;2022-11-25T02:10:38;13.77;;;5.27;;
34433;SDS011;34290;48.562;13.384;2022-11-25T02:13:06;13.47;;;5.30;;
34433;SDS011;34290;48.562;13.384;2022-11-25T02:15:33;34.23;;;5.80;;
34433;SDS011;34290;48.562;13.384;2022-11-25T02:18:00;49.97;;;6.17;;
34433;SDS011;34290;48.562;13.384;2022-11-25T02:20:27;19.93;;;5.50;;
34433;SDS011;34290;48.562;13.384;2022-11-25T02:22:58;46.47;;;5.77;;
34433;SDS011;34290;48.562;13.384;2022-11-25T02:25:34;20.47;;;5.60;;
34433;SDS011;34290;48.562;13.384;2022-11-25T02:28:03;22.43;;;5.03;;
34433;SDS011;34290;48.562;13.384;2022-11-25T02:30:33;18.17;;;5.20;;
34433;SDS011;34290;48.562;13.384;2022-11-25T02:33:00;13.23;;;4.57;;
34433;SDS011;34290;48.562;13.384;2022-11-25T02:35:29;9.73;;;5.03;;
34433;SDS011;34290;48.562;13.384;2022-11-25T02:38:05;35.73;;;5.90;;
34433;SDS011;34290;48.562;13.384;2022-11-25T02:40:36;12.13;;;5.87;;
34433;SDS011;34290;48.562;13.384;2022-11-25T02:43:09;30.90;;;6.30;;
34433;SDS011;34290;48.562;13.384;2022-11-25T02:45:40;38.20;;;6.40;;
34433;SDS011;34290;48.562;13.384;2022-11-25T02:48:21;49.87;;;7.57;;
34433;SDS011;34290;48.562;13.384;2022-11-25T02:50:49;54.13;;;7.73;;
34433;SDS011;34290;48.562;13.384;2022-11-25T02:53:16;36.47;;;8.03;;
34433;SDS011;34290;48.562;13.384;2022-11-25T02:55:45;23.20;;;6.50;;
34433;SDS011;34290;48.562;13.384;2022-11-25T02:58:12;58.50;;;7.83;;
34433;SDS011;34290;48.562;13.384;2022-11-25T03:00:40;42.13;;;7.23;;
34433;SDS011;34290;48.562;13.384;2022-11-25T03:03:10;54.07;;;7.60;;
34433;SDS011;34290;48.562;13.384;2022-11-25T03:05:37;53.83;;;7.23;;
34433;SDS011;34290;48.562;13.384;2022-11-25T03:08:04;52.93;;;7.07;;
34433;SDS011;34290;48.562;13.384;2022-11-25T03:10:32;56.03;;;7.50;;
34433;SDS011;34290;48.562;13.384;2022-11-25T03:13:00;68.27;;;7.53;;
34433;SDS011;34290;48.562;13.384;2022-11-25T03:15:27;114.90;;;9.27;;
34433;SDS011;34290;48.562;13.384;2022-11-25T03:17:54;114.23;;;10.57;;
34433;SDS011;34290;48.562;13.384;2022-11-25T03:20:21;65.50;;;8.77;;
34433;SDS011;34290;48.562;13.384;2022-11-25T03:22:49;66.33;;;8.00;;
34433;SDS011;34290;48.562;13.384;2022-11-25T03:25:16;60.23;;;7.80;;
34433;SDS011;34290;48.562;13.384;2022-11-25T03:27:43;59.70;;;6.90;;
34433;SDS011;34290;48.562;13.384;2022-11-25T03:30:13;42.97;;;6.40;;
34433;SDS011;34290;48.562;13.384;2022-11-25T03:32:42;35.20;;;6.93;;
34433;SDS011;34290;48.562;13.384;2022-11-25T03:35:10;38.93;;;7.80;;
34433;SDS011;34290;48.562;13.384;2022-11-25T03:37:37;26.73;;;6.70;;
34433;SDS011;34290;48.562;13.384;2022-11-25T03:40:05;22.77;;;6.43;;
34433;SDS011;34290;48.562;13.384;2022-11-25T03:42:33;39.87;;;7.07;;
34433;SDS011;34290;48.562;13.384;2022-11-25T03:45:01;27.23;;;6.40;;
34433;SDS011;34290;48.562;13.384;2022-11-25T03:47:29;29.00;;;7.30;;
34433;SDS011;34290;48.562;13.384;2022-11-25T03:49:56;30.83;;;6.80;;
34433;SDS011;34290;48.562;13.384;2022-11-25T03:52:24;41.37;;;7.23;;
34433;SDS011;34290;48.562;13.384;2022-11-25T03:54:51;98.10;;;9.13;;
34433;SDS011;34290;48.562;13.384;2022-11-25T03:57:17;135.47;;;10.13;;
34433;SDS011;34290;48.562;13.384;2022-11-25T03:59:44;61.37;;;7.67;;
34433;SDS011;34290;48.562;13.384;2022-11-25T04:02:12;35.50;;;6.53;;
34433;SDS011;34290;48.562;13.384;2022-11-25T04:04:40;30.30;;;6.30;;
34433;SDS011;34290;48.562;13.384;2022-11-25T04:07:07;21.70;;;5.33;;
34433;SDS011;34290;48.562;13.384;2022-11-25T04:09:34;43.77;;;7.03;;
34433;SDS011;34290;48.562;13.384;2022-11-25T04:12:02;51.50;;;6.77;;
34433;SDS011;34290;48.562;13.384;2022-11-25T04:14:46;116.60;;;9.23;;
34433;SDS011;34290;48.562;13.384;2022-11-25T04:17:13;116.20;;;9.40;;
34433;SDS011;34290;48.562;13.384;2022-11-25T04:19:42;82.23;;;7.90;;
34433;SDS011;34290;48.562;13.384;2022-11-25T04:22:09;56.60;;;8.07;;
34433;SDS011;34290;48.562;13.384;2022-11-25T04:24:36;63.00;;;7.73;;
34433;SDS011;34290;48.562;13.384;2022-11-25T04:27:03;14.90;;;5.10;;
34433;SDS011;34290;48.562;13.384;2022-11-25T04:29:30;18.23;;;5.53;;
34433;SDS011;34290;48.562;13.384;2022-11-25T04:31:57;12.27;;;4.70;;
34433;SDS011;34290;48.562;13.384;2022-11-25T04:34:24;9.00;;;5.13;;
34433;SDS011;34290;48.562;13.384;2022-11-25T04:36:52;9.10;;;5.00;;
34433;SDS011;34290;48.562;13.384;2022-11-25T04:39:19;9.93;;;5.10;;
34433;SDS011;34290;48.562;13.384;2022-11-25T04:41:46;11.60;;;5.20;;
34433;SDS011;34290;48.562;13.384;2022-11-25T04:44:14;28.10;;;6.40;;
34433;SDS011;34290;48.562;13.384;2022-11-25T04:46:41;26.20;;;6.00;;
34433;SDS011;34290;48.562;13.384;2022-11-25T04:49:09;18.87;;;5.00;;
34433;SDS011;34290;48.562;13.384;2022-11-25T04:51:36;37.00;;;6.83;;
34433;SDS011;34290;48.562;13.384;2022-11-25T04:54:05;51.27;;;6.60;;
34433;SDS011;34290;48.562;13.384;2022-11-25T04:56:32;25.27;;;5.40;;
34433;SDS011;34290;48.562;13.384;2022-11-25T04:58:59;19.67;;;5.80;;
34433;SDS011;34290;48.562;13.384;2022-11-25T05:01:43;9.40;;;5.00;;
34433;SDS011;34290;48.562;13.384;2022-11-25T05:04:10;11.87;;;4.70;;
34433;SDS011;34290;48.562;13.384;2022-11-25T05:06:40;10.37;;;5.40;;
34433;SDS011;34290;48.562;13.384;2022-11-25T05:09:09;13.20;;;6.07;;
34433;SDS011;34290;48.562;13.384;2022-11-25T05:11:36;17.77;;;5.37;;
34433;SDS011;34290;48.562;13.384;2022-11-25T05:14:03;11.83;;;5.07;;
34433;SDS011;34290;48.562;13.384;2022-11-25T05:16:30;10.03;;;4.93;;
34433;SDS011;34290;48.562;13.384;2022-11-25T05:18:58;24.30;;;5.20;;
34433;SDS011;34290;48.562;13.384;2022-11-25T05:21:25;9.27;;;5.47;;
34433;SDS011;34290;48.562;13.384;2022-11-25T05:23:52;36.93;;;6.87;;
34433;SDS011;34290;48.562;13.384;2022-11-25T05:26:21;278.50;;;15.43;;
34433;SDS011;34290;48.562;13.384;2022-11-25T05:28:48;136.80;;;10.03;;
34433;SDS011;34290;48.562;13.384;2022-11-25T05:31:15;130.43;;;9.13;;
34433;SDS011;34290;48.562;13.384;2022-11-25T05:33:42;34.47;;;5.97;;
34433;SDS011;34290;48.562;13.384;2022-11-25T05:36:09;26.10;;;6.47;;
34433;SDS011;34290;48.562;13.384;2022-11-25T05:38:36;21.67;;;6.13;;
34433;SDS011;34290;48.562;13.384;2022-11-25T05:41:04;40.27;;;6.23;;
34433;SDS011;34290;48.562;13.384;2022-11-25T05:43:37;42.37;;;7.97;;
34433;SDS011;34290;48.562;13.384;2022-11-25T05:46:04;36.90;;;6.77;;
34433;SDS011;34290;48.562;13.384;2022-11-25T05:48:32;86.83;;;9.40;;
34433;SDS011;34290;48.562;13.384;2022-11-25T05:50:59;43.73;;;7.80;;
34433;SDS011;34290;48.562;13.384;2022-11-25T05:53:26;61.83;;;8.43;;
34433;SDS011;34290;48.562;13.384;2022-11-25T05:55:54;68.67;;;7.60;;
34433;SDS011;34290;48.562;13.384;2022-11-25T05:58:22;42.33;;;8.53;;
34433;SDS011;34290;48.562;13.384;2022-11-25T06:00:51;39.77;;;7.33;;
34433;SDS011;34290;48.562;13.384;2022-11-25T06:03:18;34.83;;;6.33;;
34433;SDS011;34290;48.562;13.384;2022-11-25T06:05:45;51.27;;;8.17;;
34433;SDS011;34290;48.562;13.384;2022-11-25T06:08:12;63.77;;;8.83;;
34433;SDS011;34290;48.562;13.384;2022-11-25T06:10:39;46.57;;;7.70;;
34433;SDS011;34290;48.562;13.384;2022-11-25T06:13:10;39.40;;;7.67;;
34433;SDS011;34290;48.562;13.384;2022-11-25T06:15:39;28.47;;;6.00;;
34433;SDS011;34290;48.562;13.384;2022-11-25T06:18:08;70.67;;;8.93;;
34433;SDS011;34290;48.562;13.384;2022-11-25T06:20:36;228.40;;;11.77;;
34433;SDS011;34290;48.562;13.384;2022-11-25T06:23:03;106.93;;;8.80;;
34433;SDS011;34290;48.562;13.384;2022-11-25T06:25:31;36.53;;;5.50;;
34433;SDS011;34290;48.562;13.384;2022-11-25T06:27:58;31.97;;;5.73;;
34433;SDS011;34290;48.562;13.384;2022-11-25T06:30:27;423.77;;;19.57;;
34433;SDS011;34290;48.562;13.384;2022-11-25T06:32:54;254.30;;;13.97;;
34433;SDS011;34290;48.562;13.384;2022-11-25T06:35:22;42.93;;;6.33;;
34433;SDS011;34290;48.562;13.384;2022-11-25T06:37:51;24.07;;;5.50;;
34433;SDS011;34290;48.562;13.384;2022-11-25T06:40:18;34.67;;;6.60;;
34433;SDS011;34290;48.562;13.384;2022-11-25T06:42:45;54.67;;;7.13;;
34433;SDS011;34290;48.562;13.384;2022-11-25T06:45:12;58.73;;;8.10;;
34433;SDS011;34290;48.562;13.384;2022-11-25T06:47:39;99.73;;;9.17;;
34433;SDS011;34290;48.562;13.384;2022-11-25T06:50:06;65.83;;;7.80;;
34433;SDS011;34290;48.562;13.384;2022-11-25T06:52:35;249.20;;;15.17;;
34433;SDS011;34290;48.562;13.384;2022-11-25T06:55:05;75.23;;;8.97;;
34433;SDS011;34290;48.562;13.384;2022-11-25T06:57:32;60.10;;;8.23;;
34433;SDS011;34290;48.562;13.384;2022-11-25T06:59:59;78.30;;;9.13;;
34433;SDS011;34290;48.562;13.384;2022-11-25T07:02:26;226.03;;;13.13;;
34433;SDS011;34290;48.562;13.384;2022-11-25T07:04:56;43.43;;;7.23;;
34433;SDS011;34290;48.562;13.384;2022-11-25T07:07:26;38.40;;;6.73;;
34433;SDS011;34290;48.562;13.384;2022-11-25T07:09:59;56.10;;;8.23;;
34433;SDS011;34290;48.562;13.384;2022-11-25T07:12:26;58.17;;;7.70;;
34433;SDS011;34290;48.562;13.384;2022-11-25T07:14:55;83.10;;;8.67;;
34433;SDS011;34290;48.562;13.384;2022-11-25T07:17:22;234.60;;;14.17;;
34433;SDS011;34290;48.562;13.384;2022-11-25T07:19:49;242.13;;;13.53;;
34433;SDS011;34290;48.562;13.384;2022-11-25T07:22:16;33.43;;;6.83;;
34433;SDS011;34290;48.562;13.384;2022-11-25T07:24:43;41.67;;;7.53;;
34433;SDS011;34290;48.562;13.384;2022-11-25T07:27:11;39.87;;;7.30;;
34433;SDS011;34290;48.562;13.384;2022-11-25T07:29:38;50.20;;;7.60;;
34433;SDS011;34290;48.562;13.384;2022-11-25T07:32:05;49.80;;;8.03;;
34433;SDS011;34290;48.562;13.384;2022-11-25T07:34:33;28.73;;;6.77;;
34433;SDS011;34290;48.562;13.384;2022-11-25T07:36:59;182.07;;;13.83;;
34433;SDS011;34290;48.562;13.384;2022-11-25T07:39:26;461.90;;;21.97;;
34433;SDS011;34290;48.562;13.384;2022-11-25T07:41:54;130.00;;;11.87;;
34433;SDS011;34290;48.562;13.384;2022-11-25T07:44:22;64.27;;;9.43;;
34433;SDS011;34290;48.562;13.384;2022-11-25T07:46:52;212.37;;;17.47;;
34433;SDS011;34290;48.562;13.384;2022-11-25T07:49:20;170.23;;;15.60;;
34433;SDS011;34290;48.562;13.384;2022-11-25T07:51:50;257.87;;;15.60;;
34433;SDS011;34290;48.562;13.384;2022-11-25T07:54:18;83.67;;;9.47;;
34433;SDS011;34290;48.562;13.384;2022-11-25T07:56:46;80.87;;;10.47;;
34433;SDS011;34290;48.562;13.384;2022-11-25T07:59:15;83.37;;;10.60;;
34433;SDS011;34290;48.562;13.384;2022-11-25T08:01:47;101.20;;;16.50;;
34433;SDS011;34290;48.562;13.384;2022-11-25T08:04:14;165.73;;;14.20;;
34433;SDS011;34290;48.562;13.384;2022-11-25T08:06:42;96.97;;;12.80;;
34433;SDS011;34290;48.562;13.384;2022-11-25T08:09:10;114.57;;;14.67;;
34433;SDS011;34290;48.562;13.384;2022-11-25T08:11:38;117.47;;;10.80;;
34433;SDS011;34290;48.562;13.384;2022-11-25T08:14:08;187.60;;;13.50;;
34433;SDS011;34290;48.562;13.384;2022-11-25T08:16:35;226.30;;;14.57;;
34433;SDS011;34290;48.562;13.384;2022-11-25T08:19:05;75.67;;;9.80;;
34433;SDS011;34290;48.562;13.384;2022-11-25T08:21:37;97.77;;;16.73;;
34433;SDS011;34290;48.562;13.384;2022-11-25T08:24:04;172.50;;;15.27;;
34433;SDS011;34290;48.562;13.384;2022-11-25T08:26:32;77.87;;;9.77;;
34433;SDS011;34290;48.562;13.384;2022-11-25T08:29:02;84.57;;;9.97;;
34433;SDS011;34290;48.562;13.384;2022-11-25T08:31:31;107.40;;;9.93;;
34433;SDS011;34290;48.562;13.384;2022-11-25T08:33:59;70.47;;;12.97;;
34433;SDS011;34290;48.562;13.384;2022-11-25T08:36:28;59.00;;;10.47;;
34433;SDS011;34290;48.562;13.384;2022-11-25T08:38:56;90.00;;;10.47;;
34433;SDS011;34290;48.562;13.384;2022-11-25T08:41:25;78.03;;;10.83;;
34433;SDS011;34290;48.562;13.384;2022-11-25T08:43:54;96.93;;;12.27;;
34433;SDS011;34290;48.562;13.384;2022-11-25T08:46:22;85.03;;;9.77;;
34433;SDS011;34290;48.562;13.384;2022-11-25T08:48:51;86.47;;;10.20;;
34433;SDS011;34290;48.562;13.384;2022-11-25T08:51:19;131.37;;;11.90;;
34433;SDS011;34290;48.562;13.384;2022-11-25T08:53:48;219.83;;;16.33;;
34433;SDS011;34290;48.562;13.384;2022-11-25T08:56:16;324.17;;;18.13;;
34433;SDS011;34290;48.562;13.384;2022-11-25T08:58:44;67.70;;;9.80;;
34433;SDS011;34290;48.562;13.384;2022-11-25T09:01:13;56.80;;;10.27;;
34433;SDS011;34290;48.562;13.384;2022-11-25T09:03:43;188.83;;;16.03;;
34433;SDS011;34290;48.562;13.384;2022-11-25T09:06:11;78.30;;;10.63;;
34433;SDS011;34290;48.562;13.384;2022-11-25T09:08:39;90.53;;;11.27;;
34433;SDS011;34290;48.562;13.384;2022-11-25T09:11:09;223.03;;;14.57;;
34433;SDS011;34290;48.562;13.384;2022-11-25T09:13:36;94.83;;;11.53;;
34433;SDS011;34290;48.562;13.384;2022-11-25T09:16:04;135.63;;;12.77;;
34433;SDS011;34290;48.562;13.384;2022-11-25T09:18:33;99.93;;;11.20;;
34433;SDS011;34290;48.562;13.384;2022-11-25T09:21:05;41.30;;;10.40;;
34433;SDS011;34290;48.562;13.384;2022-11-25T09:23:34;84.83;;;10.40;;
34433;SDS011;34290;48.562;13.384;2022-11-25T09:26:04;52.63;;;10.37;;
34433;SDS011;34290;48.562;13.384;2022-11-25T09:28:34;44.07;;;10.03;;
34433;SDS011;34290;48.562;13.384;2022-11-25T09:31:05;47.97;;;10.23;;
34433;SDS011;34290;48.562;13.384;2022-11-25T09:33:35;42.90;;;10.17;;
34433;SDS011;34290;48.562;13.384;2022-11-25T09:36:03;36.20;;;11.30;;
34433;SDS011;34290;48.562;13.384;2022-11-25T09:38:31;219.00;;;15.63;;
34433;SDS011;34290;48.562;13.384;2022-11-25T09:40:58;90.87;;;11.67;;
34433;SDS011;34290;48.562;13.384;2022-11-25T09:43:32;38.27;;;9.47;;
34433;SDS011;34290;48.562;13.384;2022-11-25T09:46:33;53.57;;;11.10;;
34433;SDS011;34290;48.562;13.384;2022-11-25T09:52:09;36.87;;;10.03;;
34433;SDS011;34290;48.562;13.384;2022-11-25T09:54:44;49.87;;;10.50;;
34433;SDS011;34290;48.562;13.384;2022-11-25T09:57:19;83.47;;;13.33;;
34433;SDS011;34290;48.562;13.384;2022-11-25T09:59:56;44.83;;;12.47;;
34433;SDS011;34290;48.562;13.384;2022-11-25T10:02:31;39.20;;;11.93;;
34433;SDS011;34290;48.562;13.384;2022-11-25T10:05:04;47.20;;;11.70;;
34433;SDS011;34290;48.562;13.384;2022-11-25T10:07:35;44.63;;;13.10;;
34433;SDS011;34290;48.562;13.384;2022-11-25T10:10:11;44.93;;;13.13;;
34433;SDS011;34290;48.562;13.384;2022-11-25T10:12:51;49.30;;;14.17;;
34433;SDS011;34290;48.562;13.384;2022-11-25T10:15:26;35.43;;;13.10;;
34433;SDS011;34290;48.562;13.384;2022-11-25T10:17:58;52.47;;;14.37;;
34433;SDS011;34290;48.562;13.384;2022-11-25T10:20:30;50.83;;;13.90;;
34433;SDS011;34290;48.562;13.384;2022-11-25T10:23:01;38.77;;;13.60;;
34433;SDS011;34290;48.562;13.384;2022-11-25T10:25:34;52.17;;;14.73;;
34433;SDS011;34290;48.562;13.384;2022-11-25T10:28:09;47.57;;;14.93;;
34433;SDS011;34290;48.562;13.384;2022-11-25T10:30:49;64.27;;;14.00;;
34433;SDS011;34290;48.562;13.384;2022-11-25T10:33:20;51.70;;;14.60;;
34433;SDS011;34290;48.562;13.384;2022-11-25T10:35:50;69.10;;;15.57;;
34433;SDS011;34290;48.562;13.384;2022-11-25T10:38:22;47.73;;;14.63;;
34433;SDS011;34290;48.562;13.384;2022-11-25T10:40:53;55.70;;;15.83;;
34433;SDS011;34290;48.562;13.384;2022-11-25T10:43:21;40.97;;;14.80;;
34433;SDS011;34290;48.562;13.384;2022-11-25T10:45:51;47.80;;;14.43;;
34433;SDS011;34290;48.562;13.384;2022-11-25T10:48:37;81.87;;;17.07;;
34433;SDS011;34290;48.562;13.384;2022-11-25T10:51:17;39.13;;;14.83;;
34433;SDS011;34290;48.562;13.384;2022-11-25T10:54:09;56.00;;;14.90;;
34433;SDS011;34290;48.562;13.384;2022-11-25T10:56:41;41.97;;;16.37;;
34433;SDS011;34290;48.562;13.384;2022-11-25T11:01:52;46.37;;;15.07;;
34433;SDS011;34290;48.562;13.384;2022-11-25T11:04:46;42.63;;;14.20;;
34433;SDS011;34290;48.562;13.384;2022-11-25T11:07:25;41.13;;;14.80;;
34433;SDS011;34290;48.562;13.384;2022-11-25T11:09:54;40.87;;;15.17;;
34433;SDS011;34290;48.562;13.384;2022-11-25T11:12:49;44.83;;;15.07;;
34433;SDS011;34290;48.562;13.384;2022-11-25T11:15:21;48.70;;;15.67;;
34433;SDS011;34290;48.562;13.384;2022-11-25T11:17:51;49.33;;;17.03;;
34433;SDS011;34290;48.562;13.384;2022-11-25T11:20:21;40.40;;;15.47;;
34433;SDS011;34290;48.562;13.384;2022-11-25T11:22:56;33.60;;;13.53;;
34433;SDS011;34290;48.562;13.384;2022-11-25T11:25:28;31.43;;;12.77;;
34433;SDS011;34290;48.562;13.384;2022-11-25T11:27:59;34.77;;;13.27;;
34433;SDS011;34290;48.562;13.384;2022-11-25T11:30:27;36.13;;;12.60;;
34433;SDS011;34290;48.562;13.384;2022-11-25T11:33:01;32.57;;;14.10;;
34433;SDS011;34290;48.562;13.384;2022-11-25T11:35:37;34.53;;;13.00;;
34433;SDS011;34290;48.562;13.384;2022-11-25T11:38:22;32.30;;;13.63;;
34433;SDS011;34290;48.562;13.384;2022-11-25T11:40:59;29.53;;;12.40;;
34433;SDS011;34290;48.562;13.384;2022-11-25T11:43:44;34.50;;;12.33;;
34433;SDS011;34290;48.562;13.384;2022-11-25T11:46:27;35.70;;;14.70;;
34433;SDS011;34290;48.562;13.384;2022-11-25T11:49:13;36.73;;;14.80;;
34433;SDS011;34290;48.562;13.384;2022-11-25T11:51:54;42.40;;;15.93;;
34433;SDS011;34290;48.562;13.384;2022-11-25T11:54:27;44.23;;;15.77;;
34433;SDS011;34290;48.562;13.384;2022-11-25T11:57:01;50.30;;;16.60;;
34433;SDS011;34290;48.562;13.384;2022-11-25T11:59:39;41.70;;;16.63;;
34433;SDS011;34290;48.562;13.384;2022-11-25T12:05:18;41.63;;;15.40;;
34433;SDS011;34290;48.562;13.384;2022-11-25T12:07:53;43.83;;;15.50;;
34433;SDS011;34290;48.562;13.384;2022-11-25T12:10:29;35.47;;;14.23;;
34433;SDS011;34290;48.562;13.384;2022-11-25T12:13:01;37.53;;;14.23;;
34433;SDS011;34290;48.562;13.384;2022-11-25T12:15:36;40.30;;;15.30;;
34433;SDS011;34290;48.562;13.384;2022-11-25T12:18:09;34.80;;;14.77;;
34433;SDS011;34290;48.562;13.384;2022-11-25T12:20:50;35.87;;;14.43;;
34433;SDS011;34290;48.562;13.384;2022-11-25T12:23:24;36.47;;;14.83;;
34433;SDS011;34290;48.562;13.384;2022-11-25T12:25:55;37.67;;;14.10;;
34433;SDS011;34290;48.562;13.384;2022-11-25T12:28:28;48.73;;;17.57;;
34433;SDS011;34290;48.562;13.384;2022-11-25T12:31:02;37.37;;;15.77;;
34433;SDS011;34290;48.562;13.384;2022-11-25T12:33:39;35.00;;;13.73;;
34433;SDS011;34290;48.562;13.384;2022-11-25T12:36:14;33.67;;;14.30;;
34433;SDS011;34290;48.562;13.384;2022-11-25T12:38:44;28.27;;;13.10;;
34433;SDS011;34290;48.562;13.384;2022-11-25T12:41:18;26.80;;;11.63;;
34433;SDS011;34290;48.562;13.384;2022-11-25T12:43:55;29.83;;;12.00;;
34433;SDS011;34290;48.562;13.384;2022-11-25T12:46:27;26.90;;;12.10;;
34433;SDS011;34290;48.562;13.384;2022-11-25T12:48:59;33.90;;;16.53;;
34433;SDS011;34290;48.562;13.384;2022-11-25T12:51:34;29.10;;;12.70;;
34433;SDS011;34290;48.562;13.384;2022-11-25T12:54:20;23.43;;;11.53;;
34433;SDS011;34290;48.562;13.384;2022-11-25T13:00:08;29.53;;;13.60;;
34433;SDS011;34290;48.562;13.384;2022-11-25T13:06:00;20.97;;;10.30;;
34433;SDS011;34290;48.562;13.384;2022-11-25T13:11:49;26.77;;;11.17;;
34433;SDS011;34290;48.562;13.384;2022-11-25T13:14:29;30.80;;;11.60;;
34433;SDS011;34290;48.562;13.384;2022-11-25T13:17:19;27.23;;;12.27;;
34433;SDS011;34290;48.562;13.384;2022-11-25T13:19:47;22.80;;;11.43;;
34433;SDS011;34290;48.562;13.384;2022-11-25T13:22:35;28.27;;;12.50;;
34433;SDS011;34290;48.562;13.384;2022-11-25T13:25:19;29.23;;;13.23;;
34433;SDS011;34290;48.562;13.384;2022-11-25T13:27:56;34.20;;;13.27;;
34433;SDS011;34290;48.562;13.384;2022-11-25T13:30:35;29.03;;;13.20;;
34433;SDS011;34290;48.562;13.384;2022-11-25T13:36:14;27.87;;;11.43;;
34433;SDS011;34290;48.562;13.384;2022-11-25T13:38:58;30.73;;;12.80;;
34433;SDS011;34290;48.562;13.384;2022-11-25T13:44:26;29.27;;;12.97;;
34433;SDS011;34290;48.562;13.384;2022-11-25T13:46:56;26.43;;;12.20;;
34433;SDS011;34290;48.562;13.384;2022-11-25T13:49:27;26.07;;;11.70;;
34433;SDS011;34290;48.562;13.384;2022-11-25T13:52:03;25.80;;;12.30;;
34433;SDS011;34290;48.562;13.384;2022-11-25T13:54:50;26.33;;;11.40;;
34433;SDS011;34290;48.562;13.384;2022-11-25T13:57:24;24.93;;;12.53;;
34433;SDS011;34290;48.562;13.384;2022-11-25T13:59:55;52.50;;;21.40;;
34433;SDS011;34290;48.562;13.384;2022-11-25T14:02:37;40.90;;;20.83;;
34433;SDS011;34290;48.562;13.384;2022-11-25T14:05:17;29.43;;;14.13;;
34433;SDS011;34290;48.562;13.384;2022-11-25T14:08:09;25.87;;;12.33;;
34433;SDS011;34290;48.562;13.384;2022-11-25T14:10:43;21.93;;;10.67;;
34433;SDS011;34290;48.562;13.384;2022-11-25T14:13:19;20.37;;;10.77;;
34433;SDS011;34290;48.562;13.384;2022-11-25T14:16:07;21.23;;;10.70;;
34433;SDS011;34290;48.562;13.384;2022-11-25T14:21:50;24.53;;;11.27;;
34433;SDS011;34290;48.562;13.384;2022-11-25T14:24:28;25.67;;;11.40;;
34433;SDS011;34290;48.562;13.384;2022-11-25T14:27:01;24.47;;;11.57;;
34433;SDS011;34290;48.562;13.384;2022-11-25T14:29:40;33.07;;;16.03;;
34433;SDS011;34290;48.562;13.384;2022-11-25T14:32:17;27.77;;;13.13;;
34433;SDS011;34290;48.562;13.384;2022-11-25T14:34:46;23.93;;;11.37;;
34433;SDS011;34290;48.562;13.384;2022-11-25T14:37:16;27.30;;;11.43;;
34433;SDS011;34290;48.562;13.384;2022-11-25T14:39:46;22.63;;;10.53;;
34433;SDS011;34290;48.562;13.384;2022-11-25T14:42:18;25.33;;;10.67;;
34433;SDS011;34290;48.562;13.384;2022-11-25T14:44:50;25.10;;;11.27;;
34433;SDS011;34290;48.562;13.384;2022-11-25T14:47:20;27.77;;;11.27;;
34433;SDS011;34290;48.562;13.384;2022-11-25T14:49:49;26.40;;;11.03;;
34433;SDS011;34290;48.562;13.384;2022-11-25T14:52:18;26.03;;;11.30;;
34433;SDS011;34290;48.562;13.384;2022-11-25T14:54:49;19.77;;;9.60;;
34433;SDS011;34290;48.562;13.384;2022-11-25T14:57:21;23.00;;;10.97;;
34433;SDS011;34290;48.562;13.384;2022-11-25T14:59:55;25.50;;;10.77;;
34433;SDS011;34290;48.562;13.384;2022-11-25T15:02:28;24.93;;;12.00;;
34433;SDS011;34290;48.562;13.384;2022-11-25T15:05:07;26.83;;;11.93;;